Time;durP1;ratioP1;P1;durP2;ratioP2;P2;SDS_P1;SDS_P2;PMS_P1;PMS_P2;Temp;Humidity;BMP_temperature;BMP_pressure;BME280_temperature;BME280_humidity;BME280_pressure;Samples;Min_cycle;Max_cycle;Signal;HPM_P1;HPM_P2
2023/06/04 00:01:46;;;;;;;;;;;;;;;7.75;60.04;99490.67;136061;1276;22504;-66
2023/06/04 00:04:48;;;;;;;17.50;4.70;;;;;;;7.75;59.91;99488.94;136022;1276;22547;-64
2023/06/04 00:07:51;;;;;;;;;;;;;;;7.74;60.11;99487.27;136034;1275;22501;-66
2023/06/04 00:10:53;;;;;;;15.30;4.00;;;;;;;7.71;60.50;99487.02;135987;1276;22527;-67
2023/06/04 00:13:56;;;;;;;16.50;4.60;;;;;;;7.70;59.94;99479.73;136058;1276;22527;-61
2023/06/04 00:16:58;;;;;;;;;;;;;;;7.59;60.02;99478.23;136071;1276;22501;-69
2023/06/04 00:20:01;;;;;;;17.30;4.20;;;;;;;7.58;60.35;99476.53;136014;1276;22520;-65
2023/06/04 00:23:03;;;;;;;21.20;5.90;;;;;;;7.64;60.48;99479.45;136032;1276;22520;-66
2023/06/04 00:26:06;;;;;;;28.30;8.40;;;;;;;7.60;60.77;99479.23;136053;1260;22517;-67
2023/06/04 00:29:09;;;;;;;27.40;9.60;;;;;;;7.64;60.77;99482.03;136047;1259;22519;-71
2023/06/04 00:32:12;;;;;;;;;;;;;;;7.71;60.38;99480.73;136067;1259;22499;-62
2023/06/04 00:35:14;;;;;;;28.70;8.90;;;;;;;7.64;60.25;99481.38;136060;1259;22573;-66
2023/06/04 00:38:17;;;;;;;;;;;;;;;7.46;60.45;99475.09;136045;1259;22501;-66
2023/06/04 00:41:20;;;;;;;22.50;7.00;;;;;;;7.33;60.91;99472.95;136055;1276;22511;-65
2023/06/04 00:44:25;;;;;;;21.40;5.80;;;;;;;7.26;61.08;99473.56;136040;1276;22514;-68
2023/06/04 00:47:28;;;;;;;22.20;5.30;;;;;;;7.20;61.67;99471.52;136031;1276;22550;-62
2023/06/04 00:50:33;;;;;;;20.80;5.30;;;;;;;7.10;62.39;99473.77;136004;1276;22542;-64
2023/06/04 00:53:35;;;;;;;21.30;6.00;;;;;;;7.13;62.51;99471.79;135909;1276;25572;-67
2023/06/04 00:56:38;;;;;;;;;;;;;;;7.11;62.58;99470.11;136076;1276;22489;-64
2023/06/04 00:59:41;;;;;;;29.20;9.40;;;;;;;7.13;62.55;99465.33;136062;1276;22530;-65
2023/06/04 01:02:43;;;;;;;33.10;11.20;;;;;;;7.18;62.63;99461.33;136071;1276;22530;-60
2023/06/04 01:05:47;;;;;;;33.00;12.00;;;;;;;7.07;62.88;99460.52;135997;1276;22516;-66
2023/06/04 01:08:51;;;;;;;;;;;;;;;7.05;62.94;99459.55;136074;1276;22515;-69
2023/06/04 01:11:53;;;;;;;31.70;11.00;;;;;;;7.03;63.17;99462.06;136069;1276;22532;-67
2023/06/04 01:14:56;;;;;;;28.20;10.20;;;;;;;7.05;62.73;99460.59;136030;1276;22530;-66
2023/06/04 01:18:02;;;;;;;27.20;9.10;;;;;;;6.99;62.89;99458.54;135875;1259;22529;-66
2023/06/04 01:21:07;;;;;;;24.60;8.60;;;;;;;6.91;62.89;99460.91;136053;1276;22539;-63
2023/06/04 01:24:09;;;;;;;23.70;7.20;;;;;;;6.88;63.08;99458.95;136063;1259;22523;-68
2023/06/04 01:27:12;;;;;;;24.60;7.30;;;;;;;6.82;62.87;99460.35;136047;1276;22514;-64
2023/06/04 01:30:15;;;;;;;;;;;;;;;6.77;62.71;99454.11;136079;1276;22526;-68
2023/06/04 01:33:18;;;;;;;23.80;7.30;;;;;;;6.69;63.08;99456.98;136084;1266;22568;-71
2023/06/04 01:36:20;;;;;;;28.20;6.90;;;;;;;6.68;63.39;99456.34;136050;1276;22562;-68
2023/06/04 01:39:23;;;;;;;;;;;;;;;6.72;63.37;99453.41;136047;1276;22517;-65
2023/06/04 01:42:25;;;;;;;21.40;6.20;;;;;;;6.74;63.33;99454.73;136067;1276;22523;-67
2023/06/04 01:45:28;;;;;;;22.50;6.20;;;;;;;6.81;63.32;99455.88;136011;1276;22526;-65
2023/06/04 01:48:31;;;;;;;22.90;6.30;;;;;;;6.78;62.95;99453.55;136035;1259;22524;-67
2023/06/04 01:51:34;;;;;;;22.40;5.60;;;;;;;6.71;62.97;99451.36;136072;1276;22523;-67
2023/06/04 01:54:38;;;;;;;;;;;;;;;6.63;63.09;99454.42;136055;1276;22494;-64
2023/06/04 01:57:40;;;;;;;22.00;5.80;;;;;;;6.56;63.86;99455.70;136070;1276;22549;-64
2023/06/04 02:00:43;;;;;;;21.80;5.10;;;;;;;6.42;64.88;99458.44;136101;1276;22517;-65
2023/06/04 02:03:47;;;;;;;21.90;5.50;;;;;;;6.35;64.96;99456.41;136018;1276;22516;-64
2023/06/04 02:06:49;;;;;;;19.50;5.60;;;;;;;6.32;64.98;99457.73;136058;1266;22527;-66
2023/06/04 02:09:52;;;;;;;20.70;5.70;;;;;;;6.28;65.27;99454.05;136048;1276;25475;-67
2023/06/04 02:12:55;;;;;;;21.50;5.50;;;;;;;6.28;64.81;99450.91;136010;1276;25456;-65
2023/06/04 02:15:57;;;;;;;;;;;;;;;6.32;64.62;99452.34;136021;1275;22508;-67
2023/06/04 02:19:00;;;;;;;25.00;5.40;;;;;;;6.30;64.32;99454.14;136071;1276;22520;-62
2023/06/04 02:22:03;;;;;;;21.30;5.70;;;;;;;6.24;64.44;99453.30;136091;1254;22527;-69
2023/06/04 02:25:05;;;;;;;21.80;5.70;;;;;;;6.20;64.90;99453.42;136035;1276;22531;-66
2023/06/04 02:28:08;;;;;;;22.50;5.50;;;;;;;6.22;64.49;99453.38;136065;1276;22512;-68
2023/06/04 02:31:10;;;;;;;20.10;5.00;;;;;;;6.09;65.70;99452.39;136076;1276;22528;-62
2023/06/04 02:34:13;;;;;;;23.90;5.10;;;;;;;5.94;66.14;99454.95;136080;1259;22523;-63
2023/06/04 02:37:15;;;;;;;;;;;;;;;5.79;66.43;99454.88;136016;1276;22519;-66
2023/06/04 02:40:18;;;;;;;21.50;6.10;;;;;;;5.83;66.11;99456.32;136015;1256;22533;-66
2023/06/04 02:43:20;;;;;;;23.30;5.60;;;;;;;5.90;66.01;99457.30;136024;1259;22523;-69
2023/06/04 02:46:23;;;;;;;;;;;;;;;6.05;65.87;99453.75;136014;1276;22498;-68
2023/06/04 02:49:26;;;;;;;18.80;4.70;;;;;;;6.12;65.71;99453.02;136018;1276;22549;-65
2023/06/04 02:52:28;;;;;;;;;;;;;;;6.12;65.69;99454.73;136079;1276;22505;-68
2023/06/04 02:55:31;;;;;;;19.00;4.90;;;;;;;6.07;65.69;99454.19;136051;1276;22514;-64
2023/06/04 02:58:38;;;;;;;20.60;5.20;;;;;;;6.16;65.36;99450.27;136036;1276;22532;-66
2023/06/04 03:01:41;;;;;;;21.40;5.90;;;;;;;6.20;65.73;99453.59;136023;1276;22539;-61
2023/06/04 03:04:44;;;;;;;23.80;5.80;;;;;;;6.37;65.71;99453.91;135923;1276;22543;-61
2023/06/04 03:07:47;;;;;;;24.10;5.60;;;;;;;6.56;65.87;99458.85;136004;1276;22501;-65
2023/06/04 03:10:49;;;;;;;21.80;6.10;;;;;;;6.73;65.75;99460.48;135990;1276;22522;-65
2023/06/04 03:13:52;;;;;;;25.50;6.40;;;;;;;6.88;65.40;99464.84;135958;1276;22523;-66
2023/06/04 03:16:55;;;;;;;22.40;5.90;;;;;;;7.00;64.93;99465.98;136075;1276;22629;-62
2023/06/04 03:19:58;;;;;;;22.90;5.90;;;;;;;7.11;65.04;99465.73;136034;1276;22527;-69
2023/06/04 03:23:01;;;;;;;18.60;5.10;;;;;;;7.39;64.82;99460.21;136067;1276;25421;-68
2023/06/04 03:26:03;;;;;;;22.20;5.70;;;;;;;7.61;64.67;99459.39;136035;1276;22548;-69
2023/06/04 03:29:06;;;;;;;;;;;;;;;7.80;64.29;99457.91;136046;1272;22503;-68
2023/06/04 03:32:09;;;;;;;24.70;7.30;;;;;;;7.99;64.30;99456.29;136044;1261;22514;-67
2023/06/04 03:35:11;;;;;;;25.20;6.40;;;;;;;8.15;63.92;99459.31;136063;1258;22502;-68
2023/06/04 03:38:14;;;;;;;25.10;6.10;;;;;;;8.36;63.51;99457.77;136051;1276;22532;-68
2023/06/04 03:41:17;;;;;;;20.00;5.50;;;;;;;8.55;63.00;99457.34;136024;1255;22638;-63
2023/06/04 03:44:20;;;;;;;22.20;5.60;;;;;;;8.64;63.23;99460.08;136021;1276;22548;-66
2023/06/04 03:47:23;;;;;;;;;;;;;;;8.81;62.91;99457.11;136017;1276;22505;-65
2023/06/04 03:50:26;;;;;;;22.60;5.90;;;;;;;9.00;63.29;99459.05;136025;1276;22523;-64
2023/06/04 03:53:29;;;;;;;20.70;5.50;;;;;;;9.33;62.87;99456.88;136001;1276;25578;-65
2023/06/04 03:56:31;;;;;;;21.30;6.20;;;;;;;9.69;62.48;99454.54;135997;1276;22536;-65
2023/06/04 03:59:35;;;;;;;;;;;;;;;9.94;62.53;99454.73;136026;1276;22571;-66
2023/06/04 04:02:37;;;;;;;21.60;6.50;;;;;;;10.27;62.12;99459.06;136036;1261;22529;-65
2023/06/04 04:05:40;;;;;;;23.90;6.60;;;;;;;10.52;61.63;99456.81;136003;1272;22517;-63
2023/06/04 04:08:43;;;;;;;28.30;7.90;;;;;;;10.69;61.25;99461.73;136085;1276;22547;-66
2023/06/04 04:11:46;;;;;;;24.70;7.30;;;;;;;10.78;60.52;99460.55;136033;1264;22629;-66
2023/06/04 04:14:49;;;;;;;24.60;7.40;;;;;;;10.93;60.79;99454.71;135927;1269;22539;-69
2023/06/04 04:17:52;;;;;;;25.50;7.50;;;;;;;10.98;62.16;99453.59;136036;1276;23946;-63
2023/06/04 04:20:55;;;;;;;23.00;6.90;;;;;;;11.23;62.53;99452.46;136058;1256;22629;-67
2023/06/04 04:23:58;;;;;;;22.90;6.60;;;;;;;11.52;62.40;99445.64;135998;1276;22517;-65
2023/06/04 04:27:03;;;;;;;22.20;7.00;;;;;;;11.80;62.66;99445.48;135998;1259;22520;-63
2023/06/04 04:30:06;;;;;;;23.10;6.80;;;;;;;12.08;62.74;99445.04;135976;1276;24339;-65
2023/06/04 04:33:10;;;;;;;22.10;6.20;;;;;;;12.33;62.01;99446.90;135930;1276;22543;-67
2023/06/04 04:36:15;;;;;;;25.80;6.30;;;;;;;12.68;61.51;99441.66;136055;1256;22520;-65
2023/06/04 04:39:17;;;;;;;;;;;;;;;13.06;60.45;99439.77;135857;1276;22510;-64
2023/06/04 04:42:21;;;;;;;24.70;5.60;;;;;;;13.33;59.99;99439.12;135785;1276;22513;-66
2023/06/04 04:45:23;;;;;;;23.30;6.20;;;;;;;13.56;59.29;99444.73;135729;1259;22539;-64
2023/06/04 04:48:26;;;;;;;20.10;5.90;;;;;;;13.79;60.10;99444.87;135853;1276;22544;-66
2023/06/04 04:51:28;;;;;;;;;;;;;;;14.11;59.50;99446.30;135865;1257;24269;-67
2023/06/04 04:54:31;;;;;;;25.00;5.90;;;;;;;14.43;58.85;99441.17;135890;1276;22535;-67
2023/06/04 04:57:33;;;;;;;20.30;6.10;;;;;;;14.70;58.72;99442.63;135847;1276;25340;-66
2023/06/04 05:00:39;;;;;;;21.30;5.80;;;;;;;14.99;58.00;99442.18;135990;1259;23612;-67
2023/06/04 05:03:41;;;;;;;21.10;5.50;;;;;;;15.34;57.32;99441.14;135978;1276;25444;-66
2023/06/04 05:06:45;;;;;;;19.40;5.20;;;;;;;15.68;57.31;99442.41;135983;1276;22536;-62
2023/06/04 05:09:48;;;;;;;21.90;5.40;;;;;;;15.99;56.90;99438.63;135932;1276;22539;-67
2023/06/04 05:12:54;;;;;;;21.80;5.70;;;;;;;16.28;56.40;99438.79;135996;1259;22531;-64
2023/06/04 05:15:57;;;;;;;19.60;5.10;;;;;;;16.66;56.26;99437.48;135999;1276;24059;-63
2023/06/04 05:19:01;;;;;;;19.30;4.10;;;;;;;17.10;55.70;99434.66;135964;1259;22537;-63
2023/06/04 05:22:05;;;;;;;13.50;3.60;;;;;;;17.56;54.28;99432.64;135994;1276;22587;-68
2023/06/04 05:25:08;;;;;;;15.10;3.30;;;;;;;17.89;53.06;99434.73;135996;1276;22625;-68
2023/06/04 05:28:14;;;;;;;10.40;2.90;;;;;;;18.34;52.88;99434.14;135985;1276;22524;-66
2023/06/04 05:31:18;;;;;;;12.50;3.40;;;;;;;18.78;51.34;99433.75;135992;1276;25064;-68
2023/06/04 05:34:21;;;;;;;;;;;;;;;18.98;50.93;99428.86;135991;1263;24203;-65
2023/06/04 05:37:28;;;;;;;7.60;2.10;;;;;;;19.54;49.87;99431.65;136025;1256;22550;-68
2023/06/04 05:40:31;;;;;;;10.40;2.30;;;;;;;19.87;48.45;99428.23;136014;1276;24215;-69
2023/06/04 05:43:34;;;;;;;9.40;2.80;;;;;;;20.06;47.97;99432.38;135994;1276;22540;-64
2023/06/04 05:46:36;;;;;;;11.00;2.30;;;;;;;20.31;46.36;99426.37;135979;1276;22546;-63
2023/06/04 05:49:40;;;;;;;8.10;2.30;;;;;;;20.51;46.36;99428.46;135958;1276;22531;-66
2023/06/04 05:52:42;;;;;;;9.40;2.10;;;;;;;20.60;45.49;99433.06;135932;1276;22653;-67
2023/06/04 05:55:53;;;;;;;5.50;1.70;;;;;;;20.82;44.66;99435.53;135994;1259;22629;-67
2023/06/04 05:58:56;;;;;;;7.20;1.90;;;;;;;21.06;44.04;99429.73;135977;1259;22516;-67
2023/06/04 06:02:02;;;;;;;6.30;2.20;;;;;;;21.29;42.27;99434.64;136006;1276;24364;-64
2023/06/04 06:05:05;;;;;;;14.80;2.30;;;;;;;21.43;41.82;99434.48;135968;1276;22543;-66
2023/06/04 06:08:08;;;;;;;7.50;1.80;;;;;;;21.50;41.33;99428.55;135951;1276;22742;-68
2023/06/04 06:11:13;;;;;;;7.50;2.00;;;;;;;21.81;41.75;99434.27;135996;1276;22539;-65
2023/06/04 06:14:16;;;;;;;5.10;2.30;;;;;;;22.18;41.33;99433.98;135995;1276;22535;-65
2023/06/04 06:17:18;;;;;;;9.10;2.00;;;;;;;22.45;40.34;99436.98;135874;1276;25325;-66
2023/06/04 06:20:21;;;;;;;10.40;2.00;;;;;;;22.59;38.89;99442.95;135978;1276;23237;-67
2023/06/04 06:23:24;;;;;;;9.30;2.10;;;;;;;22.63;39.03;99439.70;135859;1276;22526;-63
2023/06/04 06:26:31;;;;;;;6.00;1.60;;;;;;;22.82;38.86;99440.39;136002;1259;22539;-68
2023/06/04 06:29:34;;;;;;;6.70;1.80;;;;;;;22.98;38.20;99442.45;135838;1259;22507;-68
2023/06/04 06:32:37;;;;;;;8.60;2.20;;;;;;;22.99;37.89;99438.88;135988;1276;25399;-67
2023/06/04 06:35:40;;;;;;;7.50;2.00;;;;;;;23.24;38.16;99438.40;135941;1276;22538;-71
2023/06/04 06:38:43;;;;;;;8.30;2.70;;;;;;;23.37;36.67;99435.14;135977;1276;22527;-66
2023/06/04 06:41:46;;;;;;;8.80;2.20;;;;;;;23.60;37.64;99437.73;135919;1259;22532;-67
2023/06/04 06:44:49;;;;;;;9.70;2.50;;;;;;;23.92;37.24;99439.73;135888;1260;22531;-65
2023/06/04 06:51:17;;;;;;;5.90;2.00;;;;;;;24.41;35.93;99437.77;135980;1276;22523;-64
2023/06/04 06:54:21;;;;;;;8.30;2.20;;;;;;;24.75;36.61;99433.52;135862;1276;23871;-67
2023/06/04 06:57:24;;;;;;;9.80;2.10;;;;;;;25.18;35.32;99435.10;136039;1276;22567;-62
2023/06/04 07:00:27;;;;;;;6.90;1.90;;;;;;;25.34;35.08;99437.96;136002;1275;25272;-65
2023/06/04 07:03:30;;;;;;;11.70;2.20;;;;;;;25.31;34.25;99441.09;135955;1259;22539;-66
2023/06/04 07:06:32;;;;;;;9.10;1.90;;;;;;;25.30;34.59;99439.26;135862;1276;22530;-69
2023/06/04 07:09:35;;;;;;;8.70;2.10;;;;;;;25.52;33.84;99437.20;135876;1259;24336;-69
2023/06/04 07:12:39;;;;;;;10.10;2.70;;;;;;;25.67;34.20;99441.58;135869;1276;22562;-70
2023/06/04 07:15:42;;;;;;;14.20;2.50;;;;;;;25.86;33.83;99438.23;135912;1276;22568;-66
2023/06/04 07:18:45;;;;;;;11.00;2.40;;;;;;;26.00;31.85;99436.53;135849;1276;25490;-64
2023/06/04 07:21:48;;;;;;;9.70;2.20;;;;;;;26.02;32.47;99439.17;135946;1276;22535;-69
2023/06/04 07:24:50;;;;;;;9.30;2.30;;;;;;;26.18;32.43;99438.96;135960;1276;22536;-67
2023/06/04 07:27:57;;;;;;;7.30;1.90;;;;;;;26.37;31.46;99439.18;135986;1276;22625;-69
2023/06/04 07:31:02;;;;;;;8.10;2.30;;;;;;;26.43;31.75;99436.04;135952;1276;22533;-63
2023/06/04 07:34:05;;;;;;;12.30;2.20;;;;;;;26.47;31.26;99435.36;135806;1276;22588;-69
2023/06/04 07:37:09;;;;;;;9.30;2.40;;;;;;;26.46;30.77;99435.44;135924;1276;23179;-69
2023/06/04 07:40:12;;;;;;;8.30;2.00;;;;;;;26.37;29.25;99437.77;135938;1276;22527;-66
2023/06/04 07:43:16;;;;;;;9.80;2.20;;;;;;;26.28;30.01;99441.71;135937;1276;22561;-69
2023/06/04 07:46:19;;;;;;;13.00;2.50;;;;;;;26.32;28.75;99440.87;135868;1276;22546;-68
2023/06/04 07:49:22;;;;;;;8.20;2.30;;;;;;;26.39;28.43;99436.85;135605;1276;22990;-70
2023/06/04 07:52:26;;;;;;;7.30;2.10;;;;;;;26.30;27.52;99428.71;135683;1276;22814;-70
2023/06/04 07:55:29;;;;;;;11.70;2.10;;;;;;;26.45;28.75;99428.55;135708;1276;22259;-68
2023/06/04 07:58:32;;;;;;;6.40;2.20;;;;;;;26.83;29.10;99432.95;136302;1276;22175;-71
2023/06/04 08:01:35;;;;;;;9.50;2.10;;;;;;;27.06;28.59;99437.27;136364;1276;22649;-71
2023/06/04 08:04:41;;;;;;;9.50;2.50;;;;;;;27.16;28.07;99432.86;135984;1276;22622;-73
2023/06/04 08:07:45;;;;;;;12.10;2.00;;;;;;;27.33;28.02;99431.95;135898;1276;22619;-69
2023/06/04 08:10:47;;;;;;;7.40;2.20;;;;;;;27.70;28.34;99427.16;136000;1276;22539;-71
2023/06/04 08:13:50;;;;;;;8.40;2.30;;;;;;;27.82;28.14;99433.64;135952;1276;22542;-69
2023/06/04 08:16:53;;;;;;;10.60;2.10;;;;;;;27.88;27.36;99432.95;135956;1276;22547;-75
2023/06/04 08:19:56;;;;;;;5.20;2.10;;;;;;;27.86;27.72;99434.26;135938;1276;22993;-73
2023/06/04 08:22:59;;;;;;;11.00;2.20;;;;;;;27.95;27.55;99429.92;135919;1276;22520;-71
2023/06/04 08:26:05;;;;;;;9.90;2.60;;;;;;;28.08;26.86;99426.83;135932;1276;22795;-68
2023/06/04 08:29:08;;;;;;;7.60;1.90;;;;;;;28.18;27.07;99424.90;135921;1271;22517;-67
2023/06/04 08:32:11;;;;;;;11.20;2.40;;;;;;;28.23;27.73;99420.88;135950;1276;22516;-70
2023/06/04 08:35:13;;;;;;;8.50;2.10;;;;;;;28.45;27.54;99422.05;135836;1276;22527;-68
2023/06/04 08:38:16;;;;;;;8.20;2.00;;;;;;;28.33;25.53;99419.27;135863;1276;22546;-71
2023/06/04 08:41:19;;;;;;;7.80;2.10;;;;;;;28.24;26.22;99425.02;135978;1276;22522;-74
2023/06/04 08:44:21;;;;;;;8.30;2.50;;;;;;;28.25;26.07;99429.81;136011;1276;22538;-72
2023/06/04 08:47:24;;;;;;;6.90;2.10;;;;;;;28.37;26.50;99423.95;135922;1260;24203;-71
2023/06/04 08:50:27;;;;;;;9.80;2.30;;;;;;;28.66;26.29;99423.34;135900;1260;22643;-72
2023/06/04 08:53:30;;;;;;;9.80;3.10;;;;;;;28.70;25.80;99429.48;135911;1276;22517;-73
2023/06/04 08:56:33;;;;;;;11.00;2.20;;;;;;;28.83;26.31;99431.29;135976;1276;22523;-70
2023/06/04 08:59:36;;;;;;;6.00;2.00;;;;;;;29.06;26.15;99430.64;135940;1276;22565;-70
2023/06/04 09:02:39;;;;;;;9.10;2.20;;;;;;;29.11;25.62;99431.20;135956;1276;22496;-75
2023/06/04 09:05:47;;;;;;;8.30;1.90;;;;;;;29.28;25.86;99431.96;135905;1260;22530;-71
2023/06/04 09:08:51;;;;;;;4.90;2.10;;;;;;;29.46;25.49;99431.17;135895;1276;22598;-74
2023/06/04 09:11:54;;;;;;;7.20;2.20;;;;;;;29.51;25.03;99429.98;135921;1276;22527;-71
2023/06/04 09:14:56;;;;;;;5.80;2.40;;;;;;;29.51;25.17;99431.52;135940;1276;22520;-71
2023/06/04 09:17:59;;;;;;;7.80;1.90;;;;;;;29.35;24.85;99432.54;135954;1276;22510;-68
2023/06/04 09:21:03;;;;;;;7.90;2.00;;;;;;;29.26;24.34;99432.00;135958;1276;22516;-71
2023/06/04 09:24:06;;;;;;;8.60;2.10;;;;;;;29.38;24.72;99434.92;135895;1276;22523;-72
2023/06/04 09:27:08;;;;;;;7.90;2.30;;;;;;;29.48;24.09;99430.85;135952;1276;22543;-75
2023/06/04 09:30:11;;;;;;;8.60;2.30;;;;;;;29.45;24.26;99432.79;135963;1275;22527;-76
2023/06/04 09:33:23;;;;;;;6.70;2.20;;;;;;;29.58;24.20;99436.46;135960;1276;22531;-75
2023/06/04 09:36:26;;;;;;;5.60;1.80;;;;;;;29.75;23.98;99438.75;135981;1276;22546;-74
2023/06/04 09:39:30;;;;;;;9.40;2.30;;;;;;;29.97;24.52;99440.39;135983;1276;22504;-77
2023/06/04 09:42:37;;;;;;;8.30;2.00;;;;;;;30.02;24.18;99432.77;135944;1276;22540;-76
2023/06/04 09:45:40;;;;;;;7.00;2.10;;;;;;;30.18;24.42;99422.64;135959;1276;22524;-73
2023/06/04 09:48:43;;;;;;;8.40;2.10;;;;;;;30.25;23.81;99422.02;135927;1276;22554;-72
2023/06/04 09:51:46;;;;;;;15.70;2.00;;;;;;;30.09;23.01;99418.63;135962;1276;25323;-68
2023/06/04 09:54:49;;;;;;;9.60;2.30;;;;;;;29.62;23.18;99421.53;135938;1268;23271;-74
2023/06/04 09:57:51;;;;;;;6.80;2.50;;;;;;;29.25;23.20;99424.77;135985;1276;22527;-73
2023/06/04 10:00:56;;;;;;;7.30;2.30;;;;;;;29.11;23.07;99422.92;135950;1276;22531;-77
2023/06/04 10:03:59;;;;;;;5.40;1.90;;;;;;;29.49;24.74;99412.67;135953;1259;24375;-72
2023/06/04 10:07:02;;;;;;;11.50;2.30;;;;;;;29.79;23.55;99411.41;135813;1275;25239;-71
2023/06/04 10:10:05;;;;;;;4.60;1.70;;;;;;;29.53;23.42;99412.12;135877;1276;22535;-75
2023/06/04 10:13:07;;;;;;;7.70;2.20;;;;;;;29.75;24.05;99413.82;135757;1276;22526;-73
2023/06/04 10:16:12;;;;;;;6.10;2.00;;;;;;;30.05;23.10;99408.55;135877;1276;22528;-73
2023/06/04 10:19:15;;;;;;;8.30;2.20;;;;;;;29.96;23.33;99407.89;135956;1276;22550;-76
2023/06/04 10:22:18;;;;;;;6.10;2.20;;;;;;;29.80;22.00;99408.54;135935;1276;22513;-75
2023/06/04 10:25:23;;;;;;;7.70;2.30;;;;;;;29.55;22.23;99411.66;135979;1276;22546;-77
2023/06/04 10:28:26;;;;;;;10.50;2.30;;;;;;;29.01;22.79;99414.77;135946;1276;22521;-79
2023/06/04 10:31:28;;;;;;;13.80;3.00;;;;;;;28.71;23.86;99414.30;135869;1276;22524;-74
2023/06/04 10:34:31;;;;;;;14.20;2.50;;;;;;;29.22;23.61;99413.48;135865;1276;24406;-74
2023/06/04 10:37:38;;;;;;;7.60;2.00;;;;;;;29.57;23.41;99408.90;135947;1276;22576;-75
2023/06/04 10:40:41;;;;;;;8.70;2.20;;;;;;;29.43;22.49;99404.30;135937;1276;22751;-74
2023/06/04 10:43:44;;;;;;;8.10;2.20;;;;;;;29.34;23.80;99405.02;135869;1276;22527;-72
2023/06/04 10:46:46;;;;;;;7.60;2.00;;;;;;;29.64;22.26;99400.27;135923;1275;22526;-70
2023/06/04 10:49:49;;;;;;;8.60;2.10;;;;;;;29.55;22.76;99395.08;135966;1276;22563;-70
2023/06/04 10:52:51;;;;;;;9.00;2.20;;;;;;;30.03;23.63;99392.73;135944;1276;23224;-77
2023/06/04 10:55:53;;;;;;;6.30;2.20;;;;;;;30.23;22.45;99388.80;131837;1276;5379153;-72
2023/06/04 10:58:58;;;;;;;7.20;2.10;;;;;;;30.14;22.83;99391.71;135972;1276;22534;-76
2023/06/04 11:02:09;;;;;;;8.30;2.10;;;;;;;30.51;23.09;99392.64;135867;1276;22694;-73
2023/06/04 11:05:13;;;;;;;3.70;1.80;;;;;;;30.78;22.69;99389.19;135881;1276;22516;-79
2023/06/04 11:08:15;;;;;;;7.40;2.00;;;;;;;31.13;23.03;99398.35;135909;1276;22527;-72
2023/06/04 11:11:18;;;;;;;7.70;1.80;;;;;;;31.23;21.97;99398.20;135962;1276;22514;-72
2023/06/04 11:14:21;;;;;;;6.40;1.80;;;;;;;31.33;21.36;99391.08;135862;1276;22567;-65
2023/06/04 11:17:24;;;;;;;9.00;2.30;;;;;;;31.42;22.61;99388.91;135842;1276;22524;-69
2023/06/04 11:20:27;;;;;;;7.80;2.00;;;;;;;31.71;22.58;99394.95;135957;1276;22521;-71
2023/06/04 11:23:30;;;;;;;8.60;2.10;;;;;;;31.75;21.02;99394.52;135875;1276;22513;-71
2023/06/04 11:26:33;;;;;;;8.10;2.10;;;;;;;31.43;21.45;99396.05;135893;1276;22531;-74
2023/06/04 11:29:36;;;;;;;6.60;2.10;;;;;;;31.24;21.07;99396.08;135964;1276;22531;-75
2023/06/04 11:32:39;;;;;;;5.70;2.00;;;;;;;31.06;20.90;99394.48;135874;1276;22569;-74
2023/06/04 11:35:43;;;;;;;9.50;2.00;;;;;;;31.04;20.59;99401.05;135942;1276;22526;-76
2023/06/04 11:38:45;;;;;;;7.20;2.30;;;;;;;30.63;20.51;99396.77;135956;1276;25704;-74
2023/06/04 11:41:53;;;;;;;7.00;2.10;;;;;;;30.18;20.71;99401.26;135975;1276;22583;-68
2023/06/04 11:44:56;;;;;;;9.90;2.20;;;;;;;30.38;22.24;99397.59;135977;1276;22544;-72
2023/06/04 11:47:58;;;;;;;9.10;2.20;;;;;;;30.86;21.52;99394.80;135987;1276;22527;-67
2023/06/04 11:51:05;;;;;;;5.90;2.20;;;;;;;30.90;20.32;99388.20;135959;1276;22533;-71
2023/06/04 11:54:07;;;;;;;8.70;2.00;;;;;;;30.68;20.61;99384.01;135939;1259;24518;-76
2023/06/04 11:57:10;;;;;;;7.40;2.10;;;;;;;30.76;21.25;99384.57;135935;1260;22528;-74
2023/06/04 12:00:14;;;;;;;7.40;2.00;;;;;;;30.90;21.70;99381.86;135956;1276;24403;-77
2023/06/04 12:03:24;;;;;;;11.70;2.60;;;;;;;31.26;21.48;99372.02;135964;1276;22566;-74
2023/06/04 12:06:27;;;;;;;5.40;1.70;;;;;;;31.26;21.59;99377.77;136002;1276;22529;-69
2023/06/04 12:09:31;;;;;;;12.20;2.00;;;;;;;31.52;21.23;99369.80;135708;1276;22510;-72
2023/06/04 12:12:34;;;;;;;7.40;1.80;;;;;;;31.36;20.17;99372.39;135966;1276;22523;-69
2023/06/04 12:15:39;;;;;;;7.20;2.00;;;;;;;31.29;20.77;99370.17;135969;1276;26540;-76
2023/06/04 12:18:41;;;;;;;8.40;2.30;;;;;;;31.51;20.89;99374.11;135969;1276;22531;-73
2023/06/04 12:21:45;;;;;;;9.50;2.40;;;;;;;31.84;20.72;99373.52;136003;1276;22531;-78
2023/06/04 12:24:48;;;;;;;6.40;1.90;;;;;;;31.71;19.78;99375.84;135945;1276;22527;-69
2023/06/04 12:27:50;;;;;;;6.00;2.20;;;;;;;31.67;19.95;99368.27;135993;1276;22530;-74
2023/06/04 12:30:53;;;;;;;11.00;2.10;;;;;;;31.81;21.31;99369.06;135956;1276;22517;-78
2023/06/04 12:33:56;;;;;;;7.50;2.10;;;;;;;32.00;20.41;99369.59;135880;1276;22535;-75
2023/06/04 12:36:58;;;;;;;7.40;1.90;;;;;;;31.86;20.47;99367.56;135988;1276;22520;-67
2023/06/04 12:40:03;;;;;;;9.20;1.90;;;;;;;32.06;20.30;99369.29;135948;1276;22569;-78
2023/06/04 12:43:06;;;;;;;8.20;2.20;;;;;;;32.07;19.94;99366.03;136016;1276;22528;-72
2023/06/04 12:46:09;;;;;;;5.10;1.60;;;;;;;32.14;20.76;99366.36;135862;1267;22549;-64
2023/06/04 12:49:12;;;;;;;6.80;2.20;;;;;;;32.23;20.13;99366.69;135961;1276;25377;-70
2023/06/04 12:52:16;;;;;;;8.60;1.80;;;;;;;32.43;20.90;99369.20;135996;1276;22567;-68
2023/06/04 12:55:18;;;;;;;7.70;2.10;;;;;;;32.69;20.53;99361.62;136005;1276;25386;-70
2023/06/04 12:58:21;;;;;;;8.20;2.20;;;;;;;32.43;19.92;99361.94;135876;1276;22557;-70
2023/06/04 13:01:25;;;;;;;6.00;1.50;;;;;;;32.09;20.51;99363.43;135951;1276;22529;-74
2023/06/04 13:04:28;;;;;;;7.60;1.80;;;;;;;32.03;19.96;99366.48;135980;1276;22594;-70
2023/06/04 13:07:31;;;;;;;7.40;1.90;;;;;;;31.88;20.46;99363.92;135967;1276;24035;-69
2023/06/04 13:10:34;;;;;;;9.00;1.80;;;;;;;31.88;20.48;99358.20;135994;1276;22516;-69
2023/06/04 13:13:37;;;;;;;6.50;1.90;;;;;;;31.71;20.63;99358.96;135998;1276;22531;-77
2023/06/04 13:16:40;;;;;;;6.20;1.80;;;;;;;31.76;20.16;99361.63;135972;1276;22530;-78
2023/06/04 13:19:43;;;;;;;8.10;2.00;;;;;;;31.88;20.88;99363.63;135980;1261;22546;-74
2023/06/04 13:22:45;;;;;;;7.30;2.30;;;;;;;32.18;20.64;99357.58;135986;1276;22542;-74
2023/06/04 13:25:48;;;;;;;6.00;1.70;;;;;;;32.50;20.57;99351.77;135936;1276;22530;-75
2023/06/04 13:28:51;;;;;;;7.90;1.80;;;;;;;32.70;20.09;99351.92;135995;1276;22521;-71
2023/06/04 13:31:54;;;;;;;6.10;1.90;;;;;;;32.57;19.60;99346.61;135966;1276;25389;-73
2023/06/04 13:34:57;;;;;;;6.60;1.70;;;;;;;32.02;19.46;99346.83;135872;1276;22523;-70
2023/06/04 13:38:00;;;;;;;6.10;2.10;;;;;;;31.50;20.70;99349.50;135857;1276;22527;-73
2023/06/04 13:41:04;;;;;;;10.00;2.30;;;;;;;31.72;20.21;99350.87;135955;1276;22555;-75
2023/06/04 13:44:08;;;;;;;7.90;2.00;;;;;;;31.93;20.78;99355.91;135974;1276;22546;-72
2023/06/04 13:47:13;;;;;;;10.60;2.10;;;;;;;32.15;19.81;99354.69;136035;1276;26471;-70
2023/06/04 13:50:17;;;;;;;8.30;1.90;;;;;;;31.74;19.90;99352.59;135951;1276;22523;-71
2023/06/04 13:53:27;;;;;;;9.90;1.80;;;;;;;31.99;20.88;99350.40;135994;1276;22552;-70
2023/06/04 13:56:29;;;;;;;6.30;1.80;;;;;;;32.35;20.31;99344.69;136015;1253;24423;-68
2023/06/04 13:59:32;;;;;;;7.10;1.90;;;;;;;32.38;18.92;99347.95;135991;1276;22527;-68
2023/06/04 14:02:36;;;;;;;6.20;1.60;;;;;;;32.11;20.25;99346.09;136037;1267;22523;-68
2023/06/04 14:05:39;;;;;;;3.80;1.60;;;;;;;32.26;19.42;99343.06;135987;1270;25511;-69
2023/06/04 14:08:42;;;;;;;8.10;2.10;;;;;;;32.05;19.76;99345.64;135969;1254;22524;-73
2023/06/04 14:11:52;;;;;;;7.10;1.80;;;;;;;32.01;19.74;99344.93;136034;1276;22507;-72
2023/06/04 14:14:56;;;;;;;3.90;1.40;;;;;;;31.90;20.08;99344.09;136021;1276;22535;-70
2023/06/04 14:17:58;;;;;;;10.40;2.00;;;;;;;32.13;20.45;99343.17;135874;1276;25313;-70
2023/06/04 14:21:01;;;;;;;6.60;2.00;;;;;;;32.26;19.27;99340.73;136034;1276;22531;-68